createdAt,value
2018-01-14T00:00:22.806Z,5.60
2018-01-14T00:02:50.485Z,5.50
2018-01-14T00:05:16.754Z,5.50
2018-01-14T00:07:43.277Z,5.50
2018-01-14T00:10:09.306Z,5.50
2018-01-14T00:12:37.816Z,5.40
2018-01-14T00:15:05.226Z,5.50
2018-01-14T00:17:31.252Z,5.50
2018-01-14T00:19:57.467Z,5.60
2018-01-14T00:22:23.551Z,5.50
2018-01-14T00:24:49.641Z,5.50
2018-01-14T00:27:15.672Z,5.50
2018-01-14T00:29:42.313Z,5.60
2018-01-14T00:32:08.358Z,5.80
2018-01-14T00:34:35.168Z,5.50
2018-01-14T00:37:01.322Z,5.50
2018-01-14T00:39:27.858Z,5.60
2018-01-14T00:41:53.842Z,5.60
2018-01-14T00:44:19.962Z,5.50
2018-01-14T00:46:46.956Z,5.50
2018-01-14T00:49:14.424Z,5.50
2018-01-14T00:51:40.486Z,5.50
2018-01-14T00:54:06.437Z,5.40
2018-01-14T00:56:35.847Z,5.40
2018-01-14T00:59:02.226Z,5.20
2018-01-14T01:01:28.164Z,5.10
2018-01-14T01:03:54.427Z,5.10
2018-01-14T01:06:20.418Z,5.00
2018-01-14T01:08:46.346Z,5.00
2018-01-14T01:11:12.278Z,5.10
2018-01-14T01:13:38.254Z,5.50
2018-01-14T01:16:04.404Z,5.80
2018-01-14T01:18:30.372Z,6.00
2018-01-14T01:20:56.327Z,6.00
2018-01-14T01:23:22.295Z,5.80
2018-01-14T01:25:48.849Z,5.60
2018-01-14T01:28:14.933Z,5.40
2018-01-14T01:30:41.410Z,5.30
2018-01-14T01:33:07.492Z,5.20
2018-01-14T01:35:33.633Z,5.20
2018-01-14T01:37:59.584Z,5.10
2018-01-14T01:40:25.816Z,5.10
2018-01-14T01:42:52.573Z,5.00
2018-01-14T01:45:18.572Z,5.00
2018-01-14T01:47:45.211Z,5.00
2018-01-14T01:50:11.220Z,5.00
2018-01-14T01:52:37.455Z,5.10
2018-01-14T01:55:03.604Z,5.00
2018-01-14T01:57:30.299Z,5.00
2018-01-14T01:59:56.533Z,5.00
2018-01-14T02:02:23.534Z,4.90
2018-01-14T02:04:49.511Z,4.90
2018-01-14T02:07:15.743Z,4.80
2018-01-14T02:09:41.759Z,4.80
2018-01-14T02:14:38.593Z,4.80
2018-01-14T02:17:05.514Z,4.80
2018-01-14T02:19:31.510Z,4.90
2018-01-14T02:21:57.653Z,4.90
2018-01-14T02:24:24.347Z,4.90
2018-01-14T02:26:50.857Z,4.90
2018-01-14T02:29:17.805Z,4.80
2018-01-14T02:31:43.955Z,4.70
2018-01-14T02:34:09.923Z,4.70
2018-01-14T02:36:36.034Z,4.60
2018-01-14T02:39:02.810Z,4.70
2018-01-14T02:41:29.341Z,4.70
2018-01-14T02:43:55.382Z,4.70
2018-01-14T02:46:21.534Z,4.60
2018-01-14T02:48:47.478Z,4.50
2018-01-14T02:51:14.286Z,4.60
2018-01-14T02:53:40.230Z,4.60
2018-01-14T02:56:06.193Z,4.50
2018-01-14T02:58:32.123Z,4.50
2018-01-14T03:00:58.054Z,4.40
2018-01-14T03:05:54.654Z,4.40
2018-01-14T03:08:20.661Z,4.40
2018-01-14T03:10:46.673Z,4.30
2018-01-14T03:13:12.630Z,4.50
2018-01-14T03:15:39.199Z,4.50
2018-01-14T03:18:05.393Z,4.50
2018-01-14T03:20:31.518Z,4.50
2018-01-14T03:22:57.519Z,4.40
2018-01-14T03:25:24.574Z,4.40
2018-01-14T03:27:51.518Z,4.40
2018-01-14T03:30:17.500Z,4.40
2018-01-14T03:32:43.711Z,4.50
2018-01-14T03:35:09.687Z,4.50
2018-01-14T03:37:35.617Z,4.60
2018-01-14T03:40:01.649Z,4.40
2018-01-14T03:42:27.672Z,4.50
2018-01-14T03:44:54.437Z,4.40
2018-01-14T03:47:20.443Z,4.40
2018-01-14T03:49:46.472Z,4.50
2018-01-14T03:52:13.007Z,4.50
2018-01-14T03:54:39.222Z,4.30
2018-01-14T03:57:06.906Z,4.30
2018-01-14T03:59:32.955Z,4.30
2018-01-14T04:01:58.914Z,4.40
2018-01-14T04:04:24.924Z,4.40
2018-01-14T04:06:50.862Z,4.30
2018-01-14T04:09:16.956Z,4.40
2018-01-14T04:11:42.935Z,4.30
2018-01-14T04:14:09.711Z,4.30
2018-01-14T04:16:36.422Z,4.20
2018-01-14T04:19:02.415Z,4.10
2018-01-14T04:21:28.478Z,4.10
2018-01-14T04:23:54.462Z,4.10
2018-01-14T04:26:20.800Z,4.10
2018-01-14T04:28:46.824Z,4.00
2018-01-14T04:31:12.970Z,4.10
2018-01-14T04:33:38.979Z,4.00
2018-01-14T04:36:05.031Z,4.00
2018-01-14T04:38:32.914Z,4.00
2018-01-14T04:41:00.024Z,4.10
2018-01-14T04:43:26.838Z,4.00
2018-01-14T04:45:53.134Z,4.10
2018-01-14T04:48:19.182Z,4.20
2018-01-14T04:50:45.181Z,4.20
2018-01-14T04:53:11.167Z,4.20
2018-01-14T04:55:37.083Z,4.20
2018-01-14T04:58:03.686Z,4.20
2018-01-14T05:00:30.522Z,4.10
2018-01-14T05:02:56.597Z,4.00
2018-01-14T05:05:22.737Z,4.10
2018-01-14T05:07:48.811Z,4.10
2018-01-14T05:10:14.916Z,4.10
2018-01-14T05:12:41.871Z,4.10
2018-01-14T05:15:07.915Z,4.20
2018-01-14T05:17:33.919Z,4.20
2018-01-14T05:19:59.951Z,4.20
2018-01-14T05:22:25.982Z,4.30
2018-01-14T05:24:52.050Z,4.20
2018-01-14T05:27:18.014Z,4.20
2018-01-14T05:29:44.030Z,4.20
2018-01-14T05:32:10.303Z,4.30
2018-01-14T05:34:36.687Z,4.20
2018-01-14T05:37:03.469Z,4.20
2018-01-14T05:39:30.436Z,4.20
2018-01-14T05:41:57.176Z,4.10
2018-01-14T05:44:23.200Z,4.10
2018-01-14T05:46:50.011Z,4.10
2018-01-14T05:49:16.346Z,4.10
2018-01-14T05:51:42.333Z,4.10
2018-01-14T05:54:09.107Z,4.10
2018-01-14T05:56:35.340Z,4.10
2018-01-14T05:59:01.428Z,4.10
2018-01-14T06:01:27.375Z,4.10
2018-01-14T06:03:53.373Z,4.10
2018-01-14T06:06:19.774Z,4.00
2018-01-14T06:08:45.790Z,4.00
2018-01-14T06:13:43.095Z,4.10
2018-01-14T06:16:09.107Z,4.10
2018-01-14T06:18:35.049Z,4.00
2018-01-14T06:21:01.035Z,4.00
2018-01-14T06:23:27.058Z,4.00
2018-01-14T06:25:53.044Z,4.00
2018-01-14T06:28:19.098Z,4.10
2018-01-14T06:30:45.081Z,4.10
2018-01-14T06:33:11.332Z,4.00
2018-01-14T06:35:37.663Z,3.90
2018-01-14T06:38:04.568Z,4.00
2018-01-14T06:40:30.646Z,4.00
2018-01-14T06:42:56.841Z,4.00
2018-01-14T06:45:23.567Z,4.00
2018-01-14T06:47:49.759Z,4.00
2018-01-14T06:50:17.223Z,4.10
2018-01-14T06:52:43.229Z,4.00
2018-01-14T06:55:09.322Z,4.10
2018-01-14T06:57:36.260Z,4.10
2018-01-14T07:00:04.541Z,4.10
2018-01-14T07:02:31.495Z,4.00
2018-01-14T07:04:57.470Z,4.10
2018-01-14T07:07:23.673Z,4.10
2018-01-14T07:09:49.724Z,4.10
2018-01-14T07:12:15.680Z,4.10
2018-01-14T07:14:42.551Z,4.10
2018-01-14T07:17:09.280Z,4.20
2018-01-14T07:19:36.792Z,4.10
2018-01-14T07:22:05.200Z,4.10
2018-01-14T07:24:31.191Z,4.10
2018-01-14T07:26:57.191Z,4.10
2018-01-14T07:29:23.259Z,4.10
2018-01-14T07:31:49.323Z,4.10
2018-01-14T07:34:15.290Z,4.00
2018-01-14T07:36:41.506Z,4.00
2018-01-14T07:39:07.563Z,4.00
2018-01-14T07:41:33.555Z,4.00
2018-01-14T07:43:59.635Z,4.10
2018-01-14T07:46:25.591Z,4.00
2018-01-14T07:48:51.598Z,4.00
2018-01-14T07:51:19.145Z,4.10
2018-01-14T07:53:45.219Z,4.00
2018-01-14T07:56:12.731Z,4.20
2018-01-14T07:58:38.980Z,4.20
2018-01-14T08:01:04.951Z,4.20
2018-01-14T08:03:30.899Z,4.10
2018-01-14T08:05:57.557Z,4.10
2018-01-14T08:08:23.493Z,4.10
2018-01-14T08:10:50.826Z,4.00
2018-01-14T08:13:17.058Z,4.10
2018-01-14T08:15:43.300Z,4.10
2018-01-14T08:18:09.444Z,4.10
2018-01-14T08:20:35.414Z,4.10
2018-01-14T08:23:01.512Z,4.20
2018-01-14T08:25:28.399Z,4.20
2018-01-14T08:27:54.416Z,4.20
2018-01-14T08:30:20.510Z,4.30
2018-01-14T08:32:47.409Z,4.30
2018-01-14T08:35:13.688Z,4.30
2018-01-14T08:37:39.655Z,4.20
2018-01-14T08:40:05.922Z,4.30
2018-01-14T08:42:31.919Z,4.20
2018-01-14T08:44:57.931Z,4.30
2018-01-14T08:47:24.177Z,4.30
2018-01-14T08:49:50.999Z,4.40
2018-01-14T08:52:16.994Z,4.30
2018-01-14T08:54:43.049Z,4.40
2018-01-14T08:57:09.335Z,4.20
2018-01-14T08:59:36.152Z,4.30
2018-01-14T09:02:02.932Z,4.30
2018-01-14T09:04:28.901Z,4.30
2018-01-14T09:06:58.978Z,4.30
2018-01-14T09:09:25.257Z,4.30
2018-01-14T09:11:52.266Z,4.30
2018-01-14T09:14:19.230Z,4.30
2018-01-14T09:16:45.794Z,4.40
2018-01-14T09:19:12.945Z,4.40
2018-01-14T09:21:39.998Z,4.50
2018-01-14T09:24:07.448Z,4.50
2018-01-14T09:26:33.509Z,4.40
2018-01-14T09:28:59.617Z,4.60
2018-01-14T09:31:30.642Z,4.80
2018-01-14T09:33:56.724Z,4.90
2018-01-14T09:36:23.903Z,4.80
2018-01-14T09:38:50.344Z,4.80
2018-01-14T09:41:17.966Z,4.80
2018-01-14T09:43:44.145Z,4.80
2018-01-14T09:46:10.171Z,4.90
2018-01-14T09:48:36.283Z,4.90
2018-01-14T09:51:02.299Z,4.90
2018-01-14T09:53:30.039Z,4.90
2018-01-14T09:58:39.327Z,5.10
2018-01-14T10:01:06.178Z,5.20
2018-01-14T10:03:33.748Z,5.20
2018-01-14T10:05:59.933Z,5.10
2018-01-14T10:08:26.012Z,5.10
2018-01-14T10:10:52.046Z,5.10
2018-01-14T10:13:18.576Z,5.10
2018-01-14T10:15:44.803Z,5.20
2018-01-14T10:18:11.077Z,5.30
2018-01-14T10:20:37.110Z,5.30
2018-01-14T10:23:03.065Z,5.30
2018-01-14T10:25:29.286Z,5.50
2018-01-14T10:27:56.144Z,5.70
2018-01-14T10:30:22.374Z,5.80
2018-01-14T10:32:48.359Z,5.90
2018-01-14T10:35:15.455Z,6.00
2018-01-14T10:37:41.434Z,6.10
2018-01-14T10:40:07.764Z,6.30
2018-01-14T10:42:33.932Z,6.40
2018-01-14T10:45:00.846Z,6.50
2018-01-14T10:47:27.054Z,6.40
2018-01-14T10:49:53.895Z,6.40
2018-01-14T10:52:22.070Z,6.60
2018-01-14T10:54:49.985Z,6.50
2018-01-14T10:57:15.987Z,6.60
2018-01-14T10:59:42.032Z,6.50
2018-01-14T11:02:08.719Z,6.60
2018-01-14T11:04:36.858Z,6.60
2018-01-14T11:07:02.894Z,6.60
2018-01-14T11:09:29.762Z,6.70
2018-01-14T11:11:55.764Z,6.70
2018-01-14T11:14:21.823Z,6.90
2018-01-14T11:16:47.798Z,7.00
2018-01-14T11:19:13.991Z,7.00
2018-01-14T11:21:44.761Z,7.10
2018-01-14T11:24:11.571Z,7.30
2018-01-14T11:26:38.323Z,7.40
2018-01-14T11:29:05.279Z,7.50
2018-01-14T11:31:31.288Z,7.50
2018-01-14T11:33:57.330Z,7.60
2018-01-14T11:36:23.351Z,7.50
2018-01-14T11:38:53.340Z,7.50
2018-01-14T11:41:23.888Z,7.40
2018-01-14T11:43:50.117Z,7.40
2018-01-14T11:46:17.150Z,7.40
2018-01-14T11:48:45.057Z,7.50
2018-01-14T11:51:11.038Z,7.40
2018-01-14T11:53:38.722Z,7.50
2018-01-14T11:56:05.745Z,7.50
2018-01-14T12:01:03.718Z,7.40
2018-01-14T12:03:32.979Z,7.30
2018-01-14T12:06:00.462Z,7.30
2018-01-14T12:08:28.027Z,7.40
2018-01-14T12:13:31.151Z,7.00
2018-01-14T12:15:58.680Z,6.90
2018-01-14T12:18:25.559Z,6.90
2018-01-14T12:20:53.764Z,6.90
2018-01-14T12:23:20.678Z,6.80
2018-01-14T12:25:48.762Z,6.70
2018-01-14T12:28:15.513Z,6.80
2018-01-14T12:30:41.531Z,6.70
2018-01-14T12:33:07.471Z,6.70
2018-01-14T12:35:35.086Z,6.80
2018-01-14T12:38:01.201Z,6.80
2018-01-14T12:40:27.110Z,6.80
2018-01-14T12:42:53.076Z,6.90
2018-01-14T12:45:19.053Z,6.90
2018-01-14T12:47:45.661Z,6.80
2018-01-14T12:50:13.259Z,7.00
2018-01-14T12:52:42.166Z,7.80
2018-01-14T12:55:09.410Z,8.10
2018-01-14T12:57:36.245Z,8.40
2018-01-14T13:00:04.044Z,8.40
2018-01-14T13:02:31.162Z,8.50
2018-01-14T13:04:59.809Z,8.70
2018-01-14T13:07:25.789Z,8.60
2018-01-14T13:09:52.117Z,8.80
2018-01-14T13:12:20.294Z,9.00
2018-01-14T13:14:47.022Z,9.10
2018-01-14T13:17:13.299Z,9.30
2018-01-14T13:19:40.082Z,9.30
2018-01-14T13:22:06.347Z,9.40
2018-01-14T13:24:32.403Z,9.60
2018-01-14T13:26:58.372Z,9.80
2018-01-14T13:29:24.764Z,9.60
2018-01-14T13:31:51.569Z,9.60
2018-01-14T13:45:23.735Z,7.90
2018-01-14T14:06:40.848Z,8.00
2018-01-14T14:09:12.825Z,8.10
2018-01-14T14:11:39.326Z,8.10
2018-01-14T14:14:05.311Z,8.10
2018-01-14T14:16:33.776Z,8.00
2018-01-14T14:19:01.178Z,8.10
2018-01-14T14:23:59.226Z,8.40
2018-01-14T14:26:25.175Z,8.40
2018-01-14T14:28:52.033Z,8.50
2018-01-14T14:31:18.027Z,8.30
2018-01-14T14:33:44.258Z,8.20
2018-01-14T14:36:10.253Z,7.90
2018-01-14T14:38:37.418Z,8.10
2018-01-14T14:41:03.528Z,8.00
2018-01-14T14:43:29.500Z,7.90
2018-01-14T14:45:58.032Z,7.70
2018-01-14T14:48:26.250Z,7.50
2018-01-14T14:50:55.884Z,7.30
2018-01-14T14:53:35.294Z,7.00
2018-01-14T14:56:06.002Z,7.10
2018-01-14T14:58:33.525Z,7.00
2018-01-14T15:01:01.257Z,6.90
2018-01-14T15:03:29.764Z,6.90
2018-01-14T15:08:29.297Z,6.70
2018-01-14T15:10:57.846Z,6.70
2018-01-14T15:13:24.176Z,6.70
2018-01-14T15:15:51.368Z,6.70
2018-01-14T15:20:50.745Z,6.50
2018-01-14T15:25:51.316Z,6.50
2018-01-14T15:28:17.290Z,6.50
2018-01-14T15:30:44.269Z,6.40
2018-01-14T15:33:10.317Z,6.40
2018-01-14T15:35:37.248Z,6.50
2018-01-14T15:38:04.209Z,6.30
2018-01-14T15:40:30.164Z,6.10
2018-01-14T15:42:56.819Z,6.20
2018-01-14T15:45:22.995Z,6.10
2018-01-14T15:47:48.942Z,6.10
2018-01-14T15:50:17.295Z,6.00
2018-01-14T15:52:43.779Z,6.00
2018-01-14T15:55:10.492Z,5.90
2018-01-14T15:57:37.376Z,5.90
2018-01-14T16:00:03.386Z,5.90
2018-01-14T16:02:29.305Z,5.90
2018-01-14T16:04:55.285Z,5.80
2018-01-14T16:07:21.234Z,5.80
2018-01-14T16:09:47.139Z,5.80
2018-01-14T16:12:13.243Z,5.70
2018-01-14T16:14:39.779Z,5.70
2018-01-14T16:17:05.733Z,5.60
2018-01-14T16:19:31.667Z,5.50
2018-01-14T16:21:57.662Z,5.50
2018-01-14T16:24:23.656Z,5.50
2018-01-14T16:26:50.083Z,5.40
2018-01-14T16:29:16.057Z,5.40
2018-01-14T16:31:42.152Z,5.40
2018-01-14T16:34:08.829Z,5.30
2018-01-14T16:36:34.810Z,5.30
2018-01-14T16:39:01.724Z,5.20
2018-01-14T16:41:27.779Z,5.20
2018-01-14T16:43:53.706Z,5.20
2018-01-14T16:46:19.957Z,5.20
2018-01-14T16:48:45.931Z,5.10
2018-01-14T16:51:11.913Z,5.20
2018-01-14T16:53:38.793Z,5.10
2018-01-14T16:56:04.775Z,5.00
2018-01-14T16:58:30.770Z,5.00
2018-01-14T17:00:56.727Z,5.00
2018-01-14T17:03:22.650Z,4.90
2018-01-14T17:05:50.185Z,4.90
2018-01-14T17:08:17.876Z,4.90
2018-01-14T17:10:44.017Z,4.80
2018-01-14T17:13:09.942Z,4.80
2018-01-14T17:15:35.849Z,4.80
2018-01-14T17:18:01.774Z,4.90
2018-01-14T17:20:28.674Z,4.70
2018-01-14T17:22:54.651Z,4.70
2018-01-14T17:25:20.923Z,4.70
2018-01-14T17:27:46.900Z,4.70
2018-01-14T17:30:12.854Z,4.70
2018-01-14T17:32:40.474Z,4.60
2018-01-14T17:35:06.438Z,4.60
2018-01-14T17:37:32.448Z,4.60
2018-01-14T17:39:58.654Z,4.60
2018-01-14T17:42:24.676Z,4.60
2018-01-14T17:44:50.747Z,4.50
2018-01-14T17:47:16.794Z,4.50
2018-01-14T17:49:43.056Z,4.40
2018-01-14T17:52:09.006Z,4.40
2018-01-14T17:54:34.950Z,4.40
2018-01-14T17:57:00.995Z,4.40
2018-01-14T17:59:26.958Z,4.30
2018-01-14T18:01:53.052Z,4.20
2018-01-14T18:04:19.305Z,4.30
2018-01-14T18:06:45.295Z,4.30
2018-01-14T18:09:11.246Z,4.30
2018-01-14T18:11:37.173Z,4.20
2018-01-14T18:14:03.861Z,4.10
2018-01-14T18:16:29.856Z,4.10
2018-01-14T18:18:55.869Z,3.90
2018-01-14T18:21:21.869Z,4.00
2018-01-14T18:23:47.836Z,4.10
2018-01-14T18:26:14.587Z,4.00
2018-01-14T18:28:40.542Z,4.00
2018-01-14T18:31:06.630Z,4.00
2018-01-14T18:33:32.690Z,4.00
2018-01-14T18:35:58.648Z,4.00
2018-01-14T18:38:24.955Z,3.90
2018-01-14T18:40:52.060Z,4.10
2018-01-14T18:43:18.863Z,3.90
2018-01-14T18:45:58.839Z,3.80
2018-01-14T18:48:24.750Z,3.80
2018-01-14T18:50:50.705Z,3.80
2018-01-14T18:53:16.661Z,3.80
2018-01-14T18:55:42.604Z,3.70
2018-01-14T18:58:08.537Z,3.70
2018-01-14T19:00:34.523Z,3.70
2018-01-14T19:03:00.440Z,3.70
2018-01-14T19:05:26.464Z,3.60
2018-01-14T19:07:52.391Z,3.70
2018-01-14T19:10:18.340Z,3.60
2018-01-14T19:12:44.326Z,3.60
2018-01-14T19:15:10.990Z,3.50
2018-01-14T19:17:36.908Z,3.50
2018-01-14T19:20:02.901Z,3.50
2018-01-14T19:22:28.850Z,3.50
2018-01-14T19:24:54.827Z,3.50
2018-01-14T19:27:20.795Z,3.50
2018-01-14T19:29:46.712Z,3.40
2018-01-14T19:32:12.667Z,3.40
2018-01-14T19:34:38.603Z,3.40
2018-01-14T19:37:04.855Z,3.40
2018-01-14T19:39:31.570Z,3.20
2018-01-14T19:41:57.540Z,3.20
2018-01-14T19:44:23.506Z,3.20
2018-01-14T19:46:49.455Z,3.10
2018-01-14T19:49:15.432Z,3.10
2018-01-14T19:51:41.415Z,3.10
2018-01-14T19:54:08.486Z,3.00
2018-01-14T19:56:34.394Z,3.00
2018-01-14T19:59:01.004Z,3.00
2018-01-14T20:01:26.950Z,3.10
2018-01-14T20:03:52.910Z,3.20
2018-01-14T20:06:18.902Z,3.00
2018-01-14T20:08:44.926Z,3.00
2018-01-14T20:11:11.468Z,3.00
2018-01-14T20:13:37.448Z,2.90
2018-01-14T20:16:04.988Z,3.00
2018-01-14T20:18:30.990Z,3.00
2018-01-14T20:20:56.974Z,3.00
2018-01-14T20:23:23.310Z,3.00
2018-01-14T20:25:49.359Z,3.00
2018-01-14T20:28:15.538Z,2.90
2018-01-14T20:30:42.186Z,2.90
2018-01-14T20:33:09.091Z,2.80
2018-01-14T20:35:35.058Z,2.90
2018-01-14T20:38:00.999Z,2.80
2018-01-14T20:40:27.020Z,2.80
2018-01-14T20:42:53.035Z,2.80
2018-01-14T20:45:19.025Z,2.90
2018-01-14T20:47:45.699Z,2.80
2018-01-14T20:50:11.635Z,2.70
2018-01-14T20:52:38.349Z,2.70
2018-01-14T20:55:04.433Z,2.70
2018-01-14T20:57:31.150Z,2.70
2018-01-14T20:59:58.154Z,2.60
2018-01-14T21:02:25.515Z,2.70
2018-01-14T21:04:51.774Z,2.70
2018-01-14T21:07:17.756Z,2.80
2018-01-14T21:09:43.698Z,2.70
2018-01-14T21:12:09.670Z,2.70
2018-01-14T21:14:36.006Z,2.70
2018-01-14T21:17:02.575Z,2.70
2018-01-14T21:19:28.704Z,2.70
2018-01-14T21:21:54.850Z,2.60
2018-01-14T21:24:23.840Z,2.60
2018-01-14T21:26:49.788Z,2.60
2018-01-14T21:29:16.460Z,2.60
2018-01-14T21:31:42.377Z,2.50
2018-01-14T21:34:08.334Z,2.40
2018-01-14T21:36:35.629Z,2.50
2018-01-14T21:39:02.461Z,2.40
2018-01-14T21:41:29.210Z,2.50
2018-01-14T21:43:55.823Z,2.50
2018-01-14T21:46:23.418Z,2.50
2018-01-14T21:48:49.532Z,2.30
2018-01-14T21:51:15.592Z,2.40
2018-01-14T21:53:43.660Z,2.40
2018-01-14T21:56:16.796Z,2.40
2018-01-14T21:58:44.348Z,2.40
2018-01-14T22:01:10.566Z,2.40
2018-01-14T22:03:37.400Z,2.30
2018-01-14T22:06:04.383Z,2.30
2018-01-14T22:08:31.091Z,2.20
2018-01-14T22:10:57.062Z,2.20
2018-01-14T22:13:23.953Z,2.20
2018-01-14T22:15:50.832Z,2.20
2018-01-14T22:18:16.759Z,2.20
2018-01-14T22:20:42.662Z,2.20
2018-01-14T22:23:08.600Z,2.20
2018-01-14T22:25:35.270Z,2.20
2018-01-14T22:28:01.233Z,2.10
2018-01-14T22:30:27.177Z,2.20
2018-01-14T22:32:53.109Z,2.20
2018-01-14T22:35:19.074Z,2.20
2018-01-14T22:37:45.681Z,2.20
2018-01-14T22:40:11.681Z,2.30
2018-01-14T22:42:37.606Z,2.30
2018-01-14T22:45:03.549Z,2.30
2018-01-14T22:47:29.493Z,2.60
2018-01-14T22:49:55.458Z,3.00
2018-01-14T22:52:21.407Z,3.30
2018-01-14T22:54:47.348Z,3.50
2018-01-14T22:57:13.316Z,3.60
2018-01-14T22:59:39.242Z,3.60
2018-01-14T23:02:05.174Z,3.60
2018-01-14T23:04:31.871Z,3.60
2018-01-14T23:06:58.535Z,3.50
2018-01-14T23:09:24.462Z,3.60
2018-01-14T23:11:51.196Z,3.60
2018-01-14T23:14:17.145Z,3.50
2018-01-14T23:16:43.577Z,3.30
2018-01-14T23:19:09.509Z,3.00
2018-01-14T23:21:35.475Z,2.90
2018-01-14T23:24:01.485Z,2.60
2018-01-14T23:26:27.481Z,2.50
2018-01-14T23:28:53.460Z,2.40
2018-01-14T23:31:19.526Z,2.30
2018-01-14T23:33:45.518Z,2.20
2018-01-14T23:36:12.179Z,2.10
2018-01-14T23:38:38.149Z,2.00
2018-01-14T23:41:04.058Z,2.00
2018-01-14T23:43:30.103Z,2.00
2018-01-14T23:45:56.423Z,2.00
2018-01-14T23:48:22.359Z,2.00
2018-01-14T23:50:48.594Z,2.00
2018-01-14T23:53:14.558Z,2.00
2018-01-14T23:55:42.044Z,2.00
2018-01-14T23:58:07.970Z,2.00
